»·PEaware :: N45XS KSBP-KMRY

N45XS :: KSBP-KMRY

FLIGHT INFORMATION

Flight Status: Arrived
Operator: Privately registered:
United States
More flights under this callsign
Pilot: Maurice C. (12314)
Aircraft: BEECH AIRCRAFT BARON
(BE58)
More flights by this aircraft type
Origin: KSBP San Luis Co Regl
United States
Destination: KMRY Monterey Peninsula
United States
More flights between these airports :: More routes between these airports
Route: +
File this flight plan on PilotEdge
Remarks:
Altitude:
(Current/Filed)
8,500ft
Speed:
(Current/Filed)
0kts
Departed: 19-Jun-17 11:28 AM
Arrived: 19-Jun-17 12:09 PM
Distance/Time
Traveled:
100nm/0:41
Distance/Time
To Go:
Arrived

Flight Plot

Page will automatically refresh every two minutes.


Map Options




Map Legend


Flown Route
Filed Route
Departure Airport
Arrival Airport
Navaid (VOR, NDB)
Fix

Horizontal Profiles

Position Reports

Time Latitude Longitude Heading Altitude Ground
Speed
19-Jun-17 11:25 35.235544 -120.633780 213 219ft 0kts
19-Jun-17 11:26 35.235543 -120.633780 213 219ft 0kts
19-Jun-17 11:27 35.235543 -120.633780 213 219ft 0kts
19-Jun-17 11:28 35.234717 -120.633738 126 216ft 8kts
19-Jun-17 11:29 35.233284 -120.632253 211 210ft 0kts
19-Jun-17 11:30 35.233284 -120.632253 211 210ft 0kts
19-Jun-17 11:31 35.239445 -120.645000 303 286ft 119kts
19-Jun-17 11:32 35.258833 -120.683889 302 994ft 144kts
19-Jun-17 11:33 35.282082 -120.724850 301 1598ft 147kts
19-Jun-17 11:34 35.315287 -120.752915 350 2163ft 146kts
19-Jun-17 11:35 35.355481 -120.755399 4 2798ft 143kts
19-Jun-17 11:36 35.394193 -120.747964 13 3486ft 139kts
19-Jun-17 11:37 35.432563 -120.737004 14 4211ft 151kts
19-Jun-17 11:38 35.474909 -120.724579 15 4940ft 160kts
19-Jun-17 11:39 35.514425 -120.712776 15 5580ft 159kts
19-Jun-17 11:40 35.557172 -120.700097 15 6268ft 157kts
19-Jun-17 11:41 35.599570 -120.688279 15 6953ft 156kts
19-Jun-17 11:42 35.641743 -120.677234 15 7498ft 163kts
19-Jun-17 11:43 35.688373 -120.665003 15 7502ft 180kts
19-Jun-17 11:44 35.737906 -120.660135 3 7805ft 173kts
19-Jun-17 11:45 35.785223 -120.666250 353 8278ft 171kts
19-Jun-17 11:46 35.831615 -120.684636 345 8504ft 183kts
19-Jun-17 11:47 35.878641 -120.713095 334 8500ft 193kts
19-Jun-17 11:48 35.924609 -120.747784 328 8499ft 195kts
19-Jun-17 11:49 35.967282 -120.788845 320 8500ft 195kts
19-Jun-17 11:50 36.007716 -120.833938 320 8499ft 196kts
19-Jun-17 11:51 36.048045 -120.878960 320 8499ft 196kts
19-Jun-17 11:52 36.088373 -120.923974 320 8500ft 196kts
19-Jun-17 11:53 36.117068 -120.967678 302 8500ft 198kts
19-Jun-17 11:54 36.145390 -121.026071 302 8498ft 198kts
19-Jun-17 11:55 36.173294 -121.083475 308 8493ft 197kts
19-Jun-17 11:56 36.208210 -121.135205 312 8494ft 195kts
19-Jun-17 11:57 36.244783 -121.184525 318 8492ft 194kts
19-Jun-17 11:58 36.283037 -121.231947 317 8491ft 194kts
19-Jun-17 11:59 36.321401 -121.279300 318 8302ft 202kts
19-Jun-17 12:00 36.362621 -121.329302 321 7730ft 209kts
19-Jun-17 12:01 36.405014 -121.374802 322 7118ft 195kts
19-Jun-17 12:02 36.445415 -121.418056 321 6518ft 190kts
19-Jun-17 12:03 36.485412 -121.460491 322 5924ft 188kts
19-Jun-17 12:04 36.524342 -121.502557 308 5308ft 173kts
19-Jun-17 12:05 36.538497 -121.552191 285 4626ft 137kts
19-Jun-17 12:06 36.544787 -121.592023 284 4586ft 127kts
19-Jun-17 12:07 36.553310 -121.643174 283 3996ft 159kts
19-Jun-17 12:08 36.561755 -121.693770 278 3125ft 128kts
19-Jun-17 12:09 36.564204 -121.742619 274 2260ft 146kts
19-Jun-17 12:10 36.567654 -121.786466 284 1228ft 115kts
19-Jun-17 12:11 36.579574 -121.822630 295 422ft 105kts
19-Jun-17 12:12 36.585382 -121.841369 201 167ft 2kts
19-Jun-17 12:13 36.585674 -121.843413 300 167ft 25kts
19-Jun-17 12:14 36.588375 -121.850783 287 167ft 25kts
19-Jun-17 12:15 36.588708 -121.853109 12 167ft 0kts
19-Jun-17 12:16 36.588708 -121.853109 12 167ft 0kts

Navigation Log

Ident Type
1. KSBP Airport
2. KMRY Airport